Time;durP1;ratioP1;P1;durP2;ratioP2;P2;SDS_P1;SDS_P2;PMS_P1;PMS_P2;Temp;Humidity;BMP_temperature;BMP_pressure;BME280_temperature;BME280_humidity;BME280_pressure;Samples;Min_cycle;Max_cycle;Signal;HPM_P1;HPM_P2
2021/06/26 00:36:41;;;;;;;16.43;11.40;;;17.10;99.90;;;;;;5903930;24;20481;-85
2021/06/26 00:39:08;;;;;;;14.07;12.63;;;17.10;99.90;;;;;;6288205;22;20460;-85
2021/06/26 00:41:35;;;;;;;13.20;12.00;;;17.20;99.90;;;;;;6312276;22;20433;-85
2021/06/26 00:44:04;;;;;;;11.87;10.67;;;17.10;99.90;;;;;;6313183;22;20443;-86
2021/06/26 00:46:30;;;;;;;13.53;12.23;;;17.20;99.90;;;;;;6313020;22;20415;-85
2021/06/26 00:48:57;;;;;;;13.00;11.80;;;17.20;99.90;;;;;;6313460;22;20470;-85
2021/06/26 00:51:24;;;;;;;11.90;10.77;;;17.20;99.90;;;;;;6313049;22;20438;-86
2021/06/26 00:53:52;;;;;;;13.10;12.00;;;17.30;99.90;;;;;;6312876;22;20889;-85
2021/06/26 00:56:19;;;;;;;12.67;11.47;;;17.20;99.90;;;;;;6313885;22;20402;-84
2021/06/26 00:58:47;;;;;;;13.87;12.57;;;17.30;99.90;;;;;;6312566;22;20697;-84
2021/06/26 01:01:14;;;;;;;13.13;12.03;;;17.30;99.90;;;;;;6313569;22;20431;-84
2021/06/26 01:03:42;;;;;;;12.67;11.37;;;17.30;99.90;;;;;;6312991;22;20447;-84
2021/06/26 01:06:08;;;;;;;14.20;12.50;;;17.30;99.90;;;;;;6313103;22;20482;-83
2021/06/26 01:08:35;;;;;;;12.80;11.63;;;17.40;99.90;;;;;;6313459;22;20424;-84
2021/06/26 01:11:06;;;;;;;14.07;12.70;;;17.40;99.90;;;;;;6313260;22;20411;-84
2021/06/26 01:13:34;;;;;;;12.10;11.00;;;17.40;99.90;;;;;;6313622;22;20414;-84
2021/06/26 01:55:12;;;;;;;13.73;11.10;;;17.20;99.90;;;;;;5874650;24;20417;-84
2021/06/26 01:57:41;;;;;;;12.43;11.20;;;17.20;99.90;;;;;;6027068;23;20427;-84
2021/06/26 02:00:09;;;;;;;11.77;10.63;;;17.20;99.90;;;;;;6040978;23;20430;-84
2021/06/26 02:02:36;;;;;;;12.43;11.43;;;17.20;99.90;;;;;;6205061;22;20407;-85
2021/06/26 02:05:03;;;;;;;13.20;12.00;;;17.20;99.90;;;;;;6321042;22;20438;-85
2021/06/26 02:07:30;;;;;;;12.10;11.00;;;17.20;99.90;;;;;;6321166;22;20467;-83
2021/06/26 02:09:58;;;;;;;11.83;10.83;;;17.20;99.90;;;;;;6322579;22;20899;-84
2021/06/26 02:12:25;;;;;;;12.10;10.90;;;17.20;99.90;;;;;;6322796;22;20426;-85
2021/06/26 02:14:54;;;;;;;12.63;11.43;;;17.30;99.90;;;;;;6324811;22;20410;-84
2021/06/26 02:17:21;;;;;;;12.80;11.60;;;17.30;99.90;;;;;;6326802;22;20429;-84
2021/06/26 02:19:47;;;;;;;11.93;10.87;;;17.30;99.90;;;;;;6328129;22;20414;-84
2021/06/26 02:22:15;;;;;;;13.53;12.27;;;17.30;99.90;;;;;;6326551;22;20426;-85
2021/06/26 02:24:42;;;;;;;15.77;13.00;;;17.30;99.90;;;;;;6326589;22;20465;-83
2021/06/26 02:27:11;;;;;;;14.80;13.50;;;17.30;99.90;;;;;;6326999;22;20512;-84
2021/06/26 02:29:38;;;;;;;16.87;15.13;;;17.30;99.90;;;;;;6326194;22;20414;-83
2021/06/26 02:32:07;;;;;;;16.30;14.80;;;17.30;99.90;;;;;;6325496;22;20435;-84
2021/06/26 02:34:34;;;;;;;15.47;13.87;;;17.30;99.90;;;;;;6326068;22;20917;-84
2021/06/26 02:37:02;;;;;;;15.77;14.17;;;17.30;99.90;;;;;;6324502;22;20415;-84
2021/06/26 02:39:29;;;;;;;16.17;14.47;;;17.30;99.90;;;;;;6323387;22;20420;-84
2021/06/26 02:41:59;;;;;;;14.83;13.33;;;17.40;99.90;;;;;;6323952;22;20417;-85
2021/06/26 02:44:25;;;;;;;17.00;14.60;;;17.40;99.90;;;;;;6323953;22;20444;-85
2021/06/26 02:46:54;;;;;;;15.73;14.13;;;17.40;99.90;;;;;;6323474;22;20483;-84
2021/06/26 02:49:22;;;;;;;16.33;14.77;;;17.40;99.90;;;;;;6323925;22;20783;-85
2021/06/26 02:51:50;;;;;;;16.80;15.10;;;17.40;99.90;;;;;;6323025;22;20796;-84
2021/06/26 02:54:17;;;;;;;14.73;13.43;;;17.40;99.90;;;;;;6323866;22;20424;-85
2021/06/26 02:56:44;;;;;;;16.13;14.43;;;17.40;99.90;;;;;;6324438;22;20383;-84
2021/06/26 02:59:11;;;;;;;16.60;14.87;;;17.40;99.90;;;;;;6323567;22;20417;-85
2021/06/26 03:01:39;;;;;;;15.57;14.20;;;17.30;99.90;;;;;;6324800;22;20437;-84
2021/06/26 03:04:06;;;;;;;14.60;13.20;;;17.30;99.90;;;;;;6323071;22;20438;-84
2021/06/26 03:06:34;;;;;;;16.70;14.00;;;17.30;99.90;;;;;;6323892;22;20407;-84
2021/06/26 03:09:01;;;;;;;14.10;13.00;;;17.20;99.90;;;;;;6322199;22;20462;-85
2021/06/26 03:11:27;;;;;;;14.77;13.27;;;17.20;99.90;;;;;;6323237;22;20431;-84
2021/06/26 03:13:54;;;;;;;14.60;13.13;;;17.10;99.90;;;;;;6322848;22;20493;-84
2021/06/26 03:16:21;;;;;;;14.33;12.93;;;17.10;99.90;;;;;;6323922;22;20506;-85
2021/06/26 03:18:48;;;;;;;15.17;13.77;;;17.00;99.90;;;;;;6323609;22;20459;-85
2021/06/26 03:21:15;;;;;;;17.30;15.53;;;17.00;99.90;;;;;;6323129;22;20429;-83
2021/06/26 03:23:44;;;;;;;17.77;15.50;;;16.90;99.90;;;;;;6322588;22;20431;-85
2021/06/26 03:26:12;;;;;;;15.70;14.20;;;16.80;99.90;;;;;;6323438;22;20422;-84
2021/06/26 03:28:39;;;;;;;16.13;14.47;;;16.70;99.90;;;;;;6322676;22;20415;-84
2021/06/26 03:31:06;;;;;;;16.97;14.80;;;16.70;99.90;;;;;;6322527;22;20435;-85
2021/06/26 03:33:33;;;;;;;17.80;14.60;;;16.60;99.90;;;;;;6323561;22;20415;-84
2021/06/26 03:36:00;;;;;;;15.83;14.17;;;16.60;99.90;;;;;;6323614;22;20403;-84
2021/06/26 03:38:26;;;;;;;14.70;13.17;;;16.50;99.90;;;;;;6323211;22;20411;-85
2021/06/26 03:40:56;;;;;;;14.83;13.43;;;16.50;99.90;;;;;;6323804;22;20426;-85
2021/06/26 03:43:23;;;;;;;16.87;14.43;;;16.40;99.90;;;;;;6323117;22;20403;-85
2021/06/26 03:45:50;;;;;;;18.73;16.73;;;16.40;99.90;;;;;;6324163;22;20445;-85
2021/06/26 03:48:17;;;;;;;18.50;16.60;;;16.40;99.90;;;;;;6323881;22;20416;-84
2021/06/26 03:50:46;;;;;;;17.00;15.10;;;16.30;99.90;;;;;;6323844;22;20431;-84
2021/06/26 03:53:12;;;;;;;17.37;15.50;;;16.30;99.90;;;;;;6323925;22;20411;-84
2021/06/26 03:55:39;;;;;;;17.60;15.90;;;16.20;99.90;;;;;;6323698;22;20489;-85
2021/06/26 03:58:07;;;;;;;17.83;15.93;;;16.10;99.90;;;;;;6322961;22;20497;-84
2021/06/26 04:00:34;;;;;;;18.67;15.83;;;16.00;99.90;;;;;;6323146;22;20422;-85
2021/06/26 04:03:01;;;;;;;17.70;15.30;;;16.10;99.90;;;;;;6323208;22;20416;-85
2021/06/26 04:05:28;;;;;;;24.20;15.57;;;16.10;99.90;;;;;;6322886;22;20439;-85
2021/06/26 04:07:54;;;;;;;21.20;16.23;;;16.10;99.90;;;;;;6324103;22;20398;-85
2021/06/26 04:10:21;;;;;;;18.87;16.97;;;16.10;99.90;;;;;;6322654;22;20437;-84
2021/06/26 04:12:48;;;;;;;18.23;16.50;;;16.20;99.90;;;;;;6323502;22;20470;-85
2021/06/26 04:15:16;;;;;;;18.97;15.93;;;16.20;99.90;;;;;;6322988;22;20432;-84
2021/06/26 04:17:42;;;;;;;18.00;16.10;;;16.20;99.90;;;;;;6323611;22;20482;-85
2021/06/26 04:20:10;;;;;;;17.27;14.10;;;16.30;99.90;;;;;;6322367;22;20403;-84
2021/06/26 04:22:39;;;;;;;19.53;17.00;;;16.40;99.90;;;;;;6323560;22;20417;-84
2021/06/26 04:25:07;;;;;;;18.43;16.00;;;16.50;99.90;;;;;;6323634;22;20434;-85
2021/06/26 04:27:34;;;;;;;18.27;16.57;;;16.50;99.90;;;;;;6322899;22;20398;-84
2021/06/26 04:30:01;;;;;;;21.20;17.30;;;16.60;99.90;;;;;;6324123;22;20922;-84
2021/06/26 04:32:30;;;;;;;17.77;15.87;;;16.70;99.90;;;;;;6323167;22;20427;-84
2021/06/26 04:34:56;;;;;;;18.20;16.17;;;16.70;99.90;;;;;;6324243;22;20489;-84
2021/06/26 04:37:23;;;;;;;19.10;16.30;;;16.90;99.90;;;;;;6324041;22;20466;-84
2021/06/26 04:39:50;;;;;;;17.70;15.90;;;16.90;99.90;;;;;;6323266;22;20426;-84
2021/06/26 04:42:16;;;;;;;24.00;20.07;;;16.90;99.90;;;;;;6324707;22;20431;-84
2021/06/26 04:44:43;;;;;;;21.77;18.27;;;16.90;99.90;;;;;;6322909;22;20438;-84
2021/06/26 04:47:10;;;;;;;19.50;17.40;;;16.90;99.90;;;;;;6322572;22;20477;-84
2021/06/26 04:49:38;;;;;;;27.83;17.20;;;16.90;99.90;;;;;;6323665;22;20417;-84
2021/06/26 04:52:05;;;;;;;21.93;17.63;;;16.90;99.90;;;;;;6322966;22;20432;-84
2021/06/26 04:54:32;;;;;;;23.40;19.33;;;16.90;99.90;;;;;;6324333;22;20444;-84
2021/06/26 04:56:59;;;;;;;24.63;19.27;;;16.90;99.90;;;;;;6322990;22;20486;-85
2021/06/26 04:59:26;;;;;;;19.47;17.33;;;16.90;99.90;;;;;;6324265;22;20411;-84
2021/06/26 05:01:53;;;;;;;23.13;18.97;;;16.90;99.90;;;;;;6331004;22;20473;-83
2021/06/26 05:04:22;;;;;;;22.40;20.00;;;16.90;99.90;;;;;;6335124;22;20432;-84
2021/06/26 05:06:50;;;;;;;24.03;19.77;;;16.90;99.90;;;;;;6334289;22;20414;-84
2021/06/26 05:09:17;;;;;;;23.07;17.33;;;16.90;99.90;;;;;;6323733;22;20407;-84
2021/06/26 05:11:45;;;;;;;20.83;18.60;;;16.90;99.90;;;;;;6323370;22;20423;-84
2021/06/26 05:14:14;;;;;;;21.40;17.07;;;17.00;99.90;;;;;;6323520;22;20410;-84
2021/06/26 05:59:06;;;;;;;18.63;16.87;;;17.90;99.90;;;;;;5847617;24;20418;-84
2021/06/26 06:30:04;;;;;;;17.60;15.70;;;19.20;99.90;;;;;;6049168;23;20549;-84
2021/06/26 06:32:31;;;;;;;17.80;15.70;;;19.30;99.90;;;;;;6265782;22;20410;-86
2021/06/26 06:34:57;;;;;;;16.47;14.87;;;19.40;99.90;;;;;;6286913;22;20412;-86
2021/06/26 06:37:25;;;;;;;19.27;17.47;;;19.50;99.90;;;;;;6286092;22;20921;-86
2021/06/26 06:39:51;;;;;;;18.03;15.80;;;19.60;99.90;;;;;;6286444;22;20407;-86
2021/06/26 06:42:18;;;;;;;17.43;15.73;;;19.80;99.90;;;;;;6286248;22;20438;-85
2021/06/26 06:44:45;;;;;;;18.20;16.30;;;19.90;99.90;;;;;;6286708;22;20425;-86
2021/06/26 06:47:13;;;;;;;18.37;16.13;;;20.00;99.90;;;;;;6286114;22;20902;-86
2021/06/26 06:49:39;;;;;;;17.37;15.67;;;20.10;99.90;;;;;;6285602;22;20417;-86
2021/06/26 06:52:09;;;;;;;17.87;16.13;;;20.10;99.90;;;;;;6284889;22;20429;-83
2021/06/26 06:54:38;;;;;;;19.33;15.90;;;20.20;99.90;;;;;;6285969;22;20432;-83
2021/06/26 06:57:05;;;;;;;17.77;14.73;;;20.20;99.90;;;;;;6287345;22;20411;-84
2021/06/26 06:59:32;;;;;;;17.50;15.70;;;20.30;99.90;;;;;;6287341;22;20411;-84
2021/06/26 07:01:59;;;;;;;17.17;15.57;;;20.30;99.90;;;;;;6286457;22;20511;-84
2021/06/26 07:04:28;;;;;;;17.07;15.40;;;20.40;99.90;;;;;;6287244;22;20403;-84
2021/06/26 07:06:56;;;;;;;17.27;15.50;;;20.30;99.90;;;;;;6287016;22;20453;-84
2021/06/26 07:09:26;;;;;;;19.50;17.50;;;20.20;99.90;;;;;;6287304;22;20418;-84
2021/06/26 07:22:22;;;;;;;16.07;14.37;;;20.50;99.90;;;;;;6201151;22;20434;-83
2021/06/26 07:27:55;;;;;;;16.00;14.50;;;20.70;99.90;;;;;;6279636;22;20404;-84
2021/06/26 07:40:13;;;;;;;14.40;13.20;;;21.40;99.90;;;;;;6282230;22;20423;-84
2021/06/26 07:42:40;;;;;;;13.30;12.00;;;21.50;99.90;;;;;;6284563;22;20484;-84
2021/06/26 07:45:08;;;;;;;13.63;12.53;;;21.70;99.90;;;;;;6284090;22;20450;-84
2021/06/26 07:47:35;;;;;;;12.67;11.47;;;21.80;99.90;;;;;;6285191;22;20419;-84
2021/06/26 07:50:02;;;;;;;12.40;11.40;;;22.00;99.90;;;;;;6285080;22;20411;-84
2021/06/26 07:52:29;;;;;;;11.90;10.90;;;22.10;99.90;;;;;;6284598;22;20458;-85
2021/06/26 07:54:56;;;;;;;10.37;9.57;;;22.20;99.90;;;;;;6284786;22;20415;-85
2021/06/26 07:57:24;;;;;;;10.43;9.43;;;22.30;99.90;;;;;;6284413;22;20454;-85
2021/06/26 07:59:51;;;;;;;10.13;9.13;;;22.40;99.90;;;;;;6285379;22;20398;-85
2021/06/26 08:02:21;;;;;;;10.50;9.70;;;22.60;99.90;;;;;;6288079;22;20516;-85
2021/06/26 08:04:48;;;;;;;11.57;10.40;;;22.80;99.90;;;;;;6288390;22;20398;-83
2021/06/26 08:07:15;;;;;;;12.77;11.67;;;23.00;99.90;;;;;;6284796;22;20414;-83
2021/06/26 08:09:42;;;;;;;10.97;9.83;;;23.20;99.90;;;;;;6285177;22;20421;-84
2021/06/26 08:12:10;;;;;;;10.57;9.57;;;23.30;99.90;;;;;;6284568;22;20443;-82
2021/06/26 08:14:38;;;;;;;11.07;10.17;;;23.40;99.90;;;;;;6284373;22;20496;-81
2021/06/26 08:17:05;;;;;;;11.57;10.57;;;23.50;99.90;;;;;;6283258;22;20400;-81
2021/06/26 08:19:32;;;;;;;10.43;9.53;;;23.60;99.90;;;;;;6282958;22;20734;-80
2021/06/26 08:21:59;;;;;;;9.83;8.93;;;23.70;99.90;;;;;;6281046;22;20432;-79
2021/06/26 08:24:26;;;;;;;11.23;10.23;;;23.70;99.20;;;;;;6279484;22;20472;-79
2021/06/26 08:26:53;;;;;;;13.97;12.50;;;23.60;99.20;;;;;;6279479;22;20979;-79
2021/06/26 08:29:19;;;;;;;12.27;11.33;;;23.50;99.60;;;;;;6279762;22;20498;-79
2021/06/26 08:31:47;;;;;;;10.40;9.50;;;23.60;99.90;;;;;;6279877;22;20427;-79
2021/06/26 08:34:14;;;;;;;11.53;10.50;;;23.70;99.90;;;;;;6280293;22;20738;-79
2021/06/26 08:36:41;;;;;;;11.93;10.97;;;23.60;99.50;;;;;;6280572;22;20402;-79
2021/06/26 08:39:07;;;;;;;12.50;11.40;;;23.70;99.30;;;;;;6280332;22;20913;-80
2021/06/26 08:41:39;;;;;;;13.13;12.07;;;23.80;99.30;;;;;;6281708;22;20430;-80
2021/06/26 08:44:07;;;;;;;11.90;10.70;;;23.70;98.40;;;;;;6281517;22;20486;-79
2021/06/26 08:46:37;;;;;;;13.00;11.60;;;23.70;98.80;;;;;;6284434;22;20771;-79
2021/06/26 08:49:05;;;;;;;13.60;12.37;;;23.30;99.10;;;;;;6287076;22;20422;-79
2021/06/26 08:51:32;;;;;;;12.50;11.40;;;23.10;98.80;;;;;;6286408;22;20438;-81
2021/06/26 08:53:59;;;;;;;12.30;11.20;;;23.20;99.60;;;;;;6291946;22;20413;-80
2021/06/26 08:56:25;;;;;;;13.10;11.87;;;23.30;99.90;;;;;;6293851;22;20763;-81
2021/06/26 08:58:52;;;;;;;11.03;10.13;;;23.50;99.90;;;;;;6291266;22;20420;-80
2021/06/26 09:01:19;;;;;;;12.93;11.67;;;23.70;99.90;;;;;;6290543;22;20433;-79
2021/06/26 09:03:45;;;;;;;11.70;10.27;;;23.90;99.00;;;;;;6289572;22;20407;-82
2021/06/26 09:06:14;;;;;;;11.47;10.50;;;24.00;98.50;;;;;;6291278;22;20435;-80
2021/06/26 09:08:49;;;;;;;11.93;10.93;;;24.10;97.90;;;;;;6291723;22;20409;-80
2021/06/26 09:11:18;;;;;;;11.57;10.57;;;24.00;97.30;;;;;;6290606;22;20430;-81
2021/06/26 09:13:45;;;;;;;10.37;9.60;;;24.00;97.80;;;;;;6288851;22;20414;-80
2021/06/26 09:16:15;;;;;;;11.00;10.23;;;24.10;98.10;;;;;;6289347;22;20395;-80
2021/06/26 09:18:43;;;;;;;11.00;10.10;;;24.20;98.60;;;;;;6288855;22;20879;-80
2021/06/26 09:21:24;;;;;;;10.83;10.03;;;24.30;98.30;;;;;;6289439;22;20432;-80
2021/06/26 09:24:03;;;;;;;10.30;9.33;;;24.50;98.60;;;;;;6290002;22;20411;-80
2021/06/26 09:26:30;;;;;;;9.70;8.80;;;24.70;97.40;;;;;;6290573;22;20504;-79
2021/06/26 09:28:56;;;;;;;10.13;9.33;;;24.80;96.60;;;;;;6289004;22;20408;-78
2021/06/26 09:31:23;;;;;;;11.50;10.60;;;24.90;97.00;;;;;;6287598;22;20427;-79
2021/06/26 09:33:58;;;;;;;10.07;9.27;;;25.10;96.10;;;;;;6287270;22;20418;-79
2021/06/26 09:36:31;;;;;;;10.53;9.63;;;25.30;95.60;;;;;;6289096;22;20402;-79
2021/06/26 09:39:00;;;;;;;10.40;9.10;;;25.20;94.90;;;;;;6287998;22;20409;-80
2021/06/26 09:41:28;;;;;;;10.00;9.30;;;25.10;95.20;;;;;;6287427;22;20426;-81
2021/06/26 09:43:56;;;;;;;11.00;10.20;;;25.20;96.90;;;;;;6287222;22;20415;-81
2021/06/26 09:46:23;;;;;;;8.60;7.90;;;25.40;96.70;;;;;;6287191;22;20450;-80
2021/06/26 09:48:52;;;;;;;9.23;8.43;;;25.50;96.70;;;;;;6287298;22;20418;-80
2021/06/26 09:51:28;;;;;;;10.77;9.83;;;25.70;95.50;;;;;;6287809;22;20460;-80
2021/06/26 09:53:59;;;;;;;10.20;9.40;;;25.80;95.10;;;;;;6286454;22;20388;-80
2021/06/26 09:56:41;;;;;;;10.77;9.87;;;26.00;95.30;;;;;;6287086;22;20384;-80
2021/06/26 09:59:09;;;;;;;9.40;8.43;;;26.10;95.30;;;;;;6285065;22;20405;-80
2021/06/26 10:01:38;;;;;;;9.20;8.50;;;26.20;95.80;;;;;;6286654;22;20430;-80
2021/06/26 10:04:06;;;;;;;8.40;7.83;;;26.40;94.30;;;;;;6286433;22;20412;-80
2021/06/26 10:06:33;;;;;;;9.10;8.40;;;26.40;93.20;;;;;;6286762;22;20448;-81
2021/06/26 10:09:03;;;;;;;7.27;6.77;;;26.50;93.40;;;;;;6286536;22;20405;-80
2021/06/26 10:11:31;;;;;;;7.97;7.37;;;26.60;91.30;;;;;;6287372;22;20422;-80
2021/06/26 10:14:00;;;;;;;8.87;8.27;;;26.80;91.20;;;;;;6287389;22;20408;-80
2021/06/26 10:16:30;;;;;;;8.37;7.73;;;26.80;92.10;;;;;;6287375;22;20401;-81
2021/06/26 10:18:59;;;;;;;8.70;7.97;;;26.70;91.80;;;;;;6287703;22;20479;-80
2021/06/26 10:21:27;;;;;;;8.07;7.47;;;26.30;90.40;;;;;;6286306;22;20428;-80
2021/06/26 10:23:55;;;;;;;8.83;8.20;;;26.50;91.70;;;;;;6286790;22;20410;-81
2021/06/26 10:26:23;;;;;;;7.97;7.37;;;26.50;92.30;;;;;;6287967;22;20448;-82
2021/06/26 10:28:53;;;;;;;8.37;7.83;;;26.60;92.60;;;;;;6289468;22;20410;-81
2021/06/26 10:31:29;;;;;;;8.50;7.90;;;26.70;90.30;;;;;;6289626;22;20432;-82
2021/06/26 10:34:19;;;;;;;7.30;6.70;;;26.90;92.20;;;;;;6291026;22;20391;-82
2021/06/26 10:36:51;;;;;;;7.90;7.20;;;27.20;90.50;;;;;;6290420;22;20401;-81
2021/06/26 10:39:23;;;;;;;7.83;7.27;;;27.30;89.60;;;;;;6293123;22;20392;-82
2021/06/26 10:42:02;;;;;;;7.23;6.63;;;27.40;90.60;;;;;;6290785;22;20420;-80
2021/06/26 10:44:44;;;;;;;7.90;7.30;;;27.60;89.70;;;;;;6291940;22;20463;-80
2021/06/26 10:47:11;;;;;;;8.00;7.30;;;27.90;90.50;;;;;;6290435;22;20438;-80
2021/06/26 10:49:38;;;;;;;7.77;7.07;;;28.20;90.60;;;;;;6290224;22;20404;-80
2021/06/26 10:52:10;;;;;;;7.63;7.13;;;28.50;90.10;;;;;;6289703;22;20432;-80
2021/06/26 11:01:40;;;;;;;7.23;6.73;;;29.90;88.20;;;;;;6077256;23;20933;-81
2021/06/26 11:04:09;;;;;;;7.03;6.60;;;30.30;84.80;;;;;;6159790;23;20393;-84
2021/06/26 11:06:41;;;;;;;7.37;6.80;;;30.50;80.70;;;;;;6179685;22;20404;-84
2021/06/26 11:09:10;;;;;;;8.30;7.80;;;30.60;76.70;;;;;;6280947;22;20442;-83
2021/06/26 11:12:04;;;;;;;8.60;8.00;;;30.70;76.70;;;;;;6283299;22;20446;-84
2021/06/26 11:15:02;;;;;;;7.07;6.67;;;30.70;75.90;;;;;;6279640;22;20426;-85
2021/06/26 11:20:28;;;;;;;7.50;7.00;;;30.30;76.90;;;;;;6284170;22;20438;-83
2021/06/26 11:22:57;;;;;;;7.10;6.60;;;30.40;79.40;;;;;;6286390;22;20467;-85
2021/06/26 11:25:28;;;;;;;8.37;7.70;;;30.80;81.60;;;;;;6284031;22;20409;-81
2021/06/26 11:28:06;;;;;;;7.07;6.50;;;31.40;76.70;;;;;;6283435;22;20751;-85
2021/06/26 11:30:34;;;;;;;7.47;6.87;;;32.10;75.90;;;;;;6282780;22;20446;-85
2021/06/26 11:33:05;;;;;;;7.03;6.60;;;32.70;74.30;;;;;;6281337;22;20414;-86
2021/06/26 11:35:42;;;;;;;7.03;6.57;;;33.30;71.00;;;;;;6281849;22;20389;-84
2021/06/26 11:38:30;;;;;;;6.37;5.87;;;33.40;66.00;;;;;;6280902;22;20441;-83
2021/06/26 11:41:07;;;;;;;6.20;5.80;;;33.30;65.50;;;;;;6215161;22;20443;-84
2021/06/26 11:44:19;;;;;;;6.23;5.90;;;33.30;67.40;;;;;;6282439;22;20398;-86
2021/06/26 11:46:49;;;;;;;6.80;6.33;;;33.60;66.60;;;;;;6283447;22;20402;-85
2021/06/26 11:49:35;;;;;;;6.80;6.40;;;33.90;66.30;;;;;;6284258;22;20939;-85
2021/06/26 11:52:04;;;;;;;7.63;7.13;;;34.40;62.20;;;;;;6286289;22;20431;-84
2021/06/26 11:54:30;;;;;;;7.57;7.00;;;34.90;62.90;;;;;;6282637;22;20415;-84
2021/06/26 11:56:59;;;;;;;7.50;7.10;;;34.90;58.40;;;;;;6282201;22;20880;-85
2021/06/26 11:59:30;;;;;;;7.37;6.87;;;34.50;59.80;;;;;;6283290;22;20407;-85
2021/06/26 12:01:57;;;;;;;7.83;7.33;;;34.10;58.70;;;;;;6278676;22;20432;-84
2021/06/26 12:04:31;;;;;;;6.60;6.20;;;33.70;61.70;;;;;;6281093;22;20429;-84
2021/06/26 12:07:01;;;;;;;7.20;6.70;;;33.70;59.80;;;;;;6281476;22;20390;-83
2021/06/26 12:09:31;;;;;;;7.20;6.70;;;33.70;59.50;;;;;;6283844;22;20425;-83
2021/06/26 12:11:59;;;;;;;6.00;5.70;;;33.90;62.60;;;;;;6283044;22;20957;-83
2021/06/26 12:17:23;;;;;;;6.37;5.97;;;34.10;59.80;;;;;;6277369;22;20439;-85
2021/06/26 12:33:40;;;;;;;;;;;;;;;;;;;;;
2021/06/26 12:40:12;;;;;;;5.43;5.13;;;36.00;56.20;;;;;;6087665;23;20418;-85
2021/06/26 12:43:13;;;;;;;5.50;5.10;;;36.90;53.30;;;;;;6246988;22;20425;-85
2021/06/26 12:46:23;;;;;;;5.60;5.30;;;37.30;50.90;;;;;;6271283;22;20443;-85
2021/06/26 14:03:23;;;;;;;6.63;4.53;;;38.80;43.40;;;;;;6128855;23;20404;-85
2021/06/26 14:05:50;;;;;;;4.37;4.17;;;38.50;42.30;;;;;;6130744;23;20415;-85
2021/06/26 14:08:19;;;;;;;5.50;5.20;;;38.40;43.50;;;;;;6213633;23;20467;-85
2021/06/26 14:10:50;;;;;;;5.10;4.80;;;38.40;42.90;;;;;;6250480;23;20554;-85
2021/06/26 14:13:17;;;;;;;4.07;3.87;;;38.50;42.20;;;;;;6250626;23;20405;-85
2021/06/26 14:15:43;;;;;;;4.50;4.20;;;38.80;43.70;;;;;;6249941;23;20412;-84
2021/06/26 14:18:10;;;;;;;5.13;4.83;;;38.90;40.80;;;;;;6250484;23;20415;-85
2021/06/26 14:20:38;;;;;;;4.93;4.63;;;39.40;42.00;;;;;;6253402;22;20443;-85
2021/06/26 14:23:05;;;;;;;4.90;4.60;;;39.90;42.00;;;;;;6283423;22;20380;-85
2021/06/26 14:25:33;;;;;;;5.70;5.40;;;40.30;40.90;;;;;;6283503;22;20469;-84
2021/06/26 14:27:59;;;;;;;6.10;5.70;;;40.10;39.40;;;;;;6283293;22;20414;-85
2021/06/26 14:30:27;;;;;;;6.53;6.20;;;39.40;40.20;;;;;;6283667;22;20450;-85
2021/06/26 14:32:53;;;;;;;5.73;5.43;;;38.70;42.20;;;;;;6283297;22;20391;-85
2021/06/26 14:35:20;;;;;;;5.57;5.27;;;38.00;41.80;;;;;;6283558;22;20412;-85
2021/06/26 14:37:49;;;;;;;5.57;5.27;;;37.40;44.00;;;;;;6284211;22;20418;-85
2021/06/26 14:40:17;;;;;;;5.77;5.37;;;36.70;44.00;;;;;;6282858;22;20412;-85
2021/06/26 14:42:45;;;;;;;5.20;4.90;;;35.90;45.60;;;;;;6282490;22;20403;-84
2021/06/26 14:45:13;;;;;;;6.27;5.87;;;35.20;46.30;;;;;;6283722;22;20415;-84
2021/06/26 14:47:40;;;;;;;6.07;5.67;;;34.70;47.30;;;;;;6283601;22;20445;-84
2021/06/26 14:50:07;;;;;;;6.43;6.03;;;34.10;48.20;;;;;;6283226;22;20406;-85
2021/06/26 14:52:34;;;;;;;7.03;6.53;;;33.60;48.90;;;;;;6282721;22;20413;-83
2021/06/26 14:55:03;;;;;;;5.83;5.43;;;33.10;48.90;;;;;;6282817;22;20412;-84
2021/06/26 14:57:30;;;;;;;6.10;5.77;;;32.40;49.60;;;;;;6283304;22;20413;-85
2021/06/26 14:59:56;;;;;;;6.60;6.20;;;31.40;51.30;;;;;;6282618;22;20406;-84
2021/06/26 15:02:24;;;;;;;5.97;5.53;;;31.00;52.80;;;;;;6283251;22;20423;-84
2021/06/26 15:04:50;;;;;;;5.70;5.30;;;30.60;54.00;;;;;;6282764;22;20406;-84
2021/06/26 15:07:17;;;;;;;5.07;4.77;;;30.30;55.40;;;;;;6282658;22;20407;-84
2021/06/26 15:09:44;;;;;;;6.50;6.10;;;30.10;55.80;;;;;;6282388;22;20400;-84
2021/06/26 15:12:12;;;;;;;5.77;5.47;;;30.00;56.90;;;;;;6282114;22;20458;-85
2021/06/26 15:14:39;;;;;;;6.83;6.33;;;30.00;56.80;;;;;;6281929;22;20485;-84
2021/06/26 15:17:06;;;;;;;5.63;5.23;;;29.90;56.50;;;;;;6282903;22;20407;-84
2021/06/26 15:19:32;;;;;;;6.27;5.67;;;29.80;56.80;;;;;;6282940;22;20461;-84
2021/06/26 15:21:59;;;;;;;6.33;5.83;;;29.80;57.30;;;;;;6281595;22;20435;-84
2021/06/26 15:24:26;;;;;;;7.43;6.73;;;29.70;56.90;;;;;;6282635;22;20403;-84
2021/06/26 15:26:53;;;;;;;5.13;4.83;;;29.90;58.30;;;;;;6283071;22;20515;-84
2021/06/26 15:29:21;;;;;;;6.10;5.70;;;30.00;57.60;;;;;;6291034;22;20417;-84
2021/06/26 15:31:47;;;;;;;5.87;5.47;;;29.90;57.40;;;;;;6282566;22;20447;-84
2021/06/26 15:34:14;;;;;;;5.87;5.47;;;30.00;58.50;;;;;;6282466;22;20454;-84
2021/06/26 15:36:43;;;;;;;5.83;5.47;;;30.10;58.70;;;;;;6282938;22;20414;-83
2021/06/26 15:39:12;;;;;;;5.77;5.37;;;30.20;57.50;;;;;;6283256;22;20418;-85
2021/06/26 15:41:40;;;;;;;7.03;6.53;;;30.20;57.30;;;;;;6281336;22;20458;-84
2021/06/26 15:44:07;;;;;;;6.50;6.10;;;30.10;56.60;;;;;;6281968;22;20399;-86
2021/06/26 15:46:36;;;;;;;6.70;5.97;;;30.10;57.30;;;;;;6282840;22;20411;-85
2021/06/26 15:49:04;;;;;;;5.40;5.10;;;30.20;57.50;;;;;;6281869;22;20408;-85
2021/06/26 15:51:32;;;;;;;6.30;5.90;;;30.40;57.70;;;;;;6281502;22;20450;-84
2021/06/26 15:54:00;;;;;;;6.37;5.97;;;30.50;56.80;;;;;;6281974;22;20414;-83
2021/06/26 15:56:27;;;;;;;6.13;5.73;;;30.40;55.30;;;;;;6282054;22;20412;-84
2021/06/26 15:58:54;;;;;;;5.17;4.87;;;30.40;55.80;;;;;;6281749;22;20416;-84
2021/06/26 16:01:22;;;;;;;5.20;4.90;;;30.60;57.00;;;;;;6281324;22;20432;-85
2021/06/26 16:03:50;;;;;;;5.23;4.93;;;31.20;57.30;;;;;;6282338;22;20452;-84
2021/06/26 16:06:17;;;;;;;4.93;4.63;;;32.10;55.30;;;;;;6280868;22;20909;-84
2021/06/26 16:08:44;;;;;;;5.97;5.57;;;33.00;53.90;;;;;;6280596;22;20414;-85
2021/06/26 16:11:12;;;;;;;5.37;5.07;;;33.70;51.70;;;;;;6280862;22;20470;-84
2021/06/26 16:13:38;;;;;;;5.70;5.30;;;34.70;50.20;;;;;;6280687;22;20503;-85
2021/06/26 16:16:07;;;;;;;5.27;4.97;;;35.70;50.10;;;;;;6280297;22;20414;-84
2021/06/26 16:18:35;;;;;;;6.17;5.83;;;36.70;47.60;;;;;;6291655;22;20743;-85
2021/06/26 16:21:04;;;;;;;6.33;5.93;;;36.90;45.50;;;;;;6280549;22;20424;-85
2021/06/26 16:23:31;;;;;;;6.13;5.70;;;36.60;45.00;;;;;;6280242;22;20411;-85
2021/06/26 16:25:59;;;;;;;5.80;5.40;;;36.30;45.90;;;;;;6280032;22;20399;-85
2021/06/26 16:28:25;;;;;;;5.57;5.27;;;35.90;46.60;;;;;;6280203;22;20403;-85
2021/06/26 16:30:52;;;;;;;6.03;5.53;;;36.00;47.20;;;;;;6280309;22;20434;-84
2021/06/26 16:33:19;;;;;;;5.30;5.00;;;36.10;46.70;;;;;;6280101;22;20420;-85
2021/06/26 16:35:46;;;;;;;5.20;4.90;;;36.30;45.30;;;;;;6280262;22;20937;-85
2021/06/26 16:38:17;;;;;;;5.53;5.23;;;36.90;46.00;;;;;;6280311;22;20727;-85
2021/06/26 16:40:51;;;;;;;5.83;5.50;;;37.10;43.80;;;;;;6279705;22;20484;-84
2021/06/26 16:43:19;;;;;;;5.50;5.20;;;36.70;44.10;;;;;;6279470;22;20407;-85
2021/06/26 16:45:46;;;;;;;5.60;5.20;;;35.80;43.80;;;;;;6280185;22;20457;-84
2021/06/26 16:48:14;;;;;;;5.43;5.03;;;35.10;45.20;;;;;;6280305;22;20426;-85
2021/06/26 16:50:40;;;;;;;5.30;5.00;;;34.30;46.00;;;;;;6279876;22;20942;-85
2021/06/26 16:53:07;;;;;;;5.37;5.07;;;34.30;46.50;;;;;;6279537;22;20732;-85
2021/06/26 16:55:35;;;;;;;5.47;5.17;;;34.80;47.00;;;;;;6279443;22;20407;-85
2021/06/26 16:58:02;;;;;;;4.83;4.50;;;35.60;46.90;;;;;;6280094;22;20417;-84
2021/06/26 17:00:29;;;;;;;4.70;4.50;;;36.40;45.40;;;;;;6279757;22;20427;-85
2021/06/26 17:02:56;;;;;;;5.40;5.10;;;37.10;44.60;;;;;;6279281;22;20723;-85
2021/06/26 17:05:23;;;;;;;5.77;5.37;;;37.70;43.90;;;;;;6280220;22;20415;-84
2021/06/26 17:07:50;;;;;;;5.53;5.23;;;38.20;42.90;;;;;;6292295;22;20506;-86
2021/06/26 17:10:17;;;;;;;6.03;5.53;;;38.50;41.30;;;;;;6280003;22;20503;-85
2021/06/26 17:12:47;;;;;;;6.17;5.73;;;38.10;40.60;;;;;;6279745;22;20759;-85
2021/06/26 17:15:14;;;;;;;6.10;5.60;;;37.20;41.30;;;;;;6280503;22;20716;-86
2021/06/26 17:17:42;;;;;;;5.87;5.47;;;37.50;42.90;;;;;;6280140;22;20420;-84
2021/06/26 17:20:09;;;;;;;5.97;5.50;;;37.80;42.70;;;;;;6279373;22;20449;-86